Time;durP1;ratioP1;P1;durP2;ratioP2;P2;SDS_P1;SDS_P2;PMS_P1;PMS_P2;Temp;Humidity;BMP_temperature;BMP_pressure;BME280_temperature;BME280_humidity;BME280_pressure;Samples;Min_cycle;Max_cycle;Signal;HPM_P1;HPM_P2
2023/05/17 00:00:26;;;;;;;7.50;3.03;;;;;;;6.93;100.00;96002.28;1018102;29;20056;-74
2023/05/17 00:00:57;;;;;;;7.63;3.65;;;;;;;6.92;100.00;96011.13;1022098;28;20403;-73
2023/05/17 00:01:27;;;;;;;5.45;3.13;;;;;;;6.91;100.00;96006.94;1009881;29;20399;-75
2023/05/17 00:01:58;;;;;;;8.20;2.97;;;;;;;6.94;100.00;96016.91;1017927;29;20115;-74
2023/05/17 00:02:28;;;;;;;10.43;3.70;;;;;;;6.89;100.00;96009.78;1021963;28;20031;-76
2023/05/17 00:02:58;;;;;;;4.63;3.05;;;;;;;6.94;100.00;96014.28;1026115;28;20029;-74
2023/05/17 00:03:29;;;;;;;5.47;3.20;;;;;;;6.85;100.00;95995.63;1033836;28;20033;-75
2023/05/17 00:03:59;;;;;;;9.57;3.30;;;;;;;6.90;100.00;96005.34;1030090;28;20760;-74
2023/05/17 00:04:30;;;;;;;5.65;3.00;;;;;;;6.93;100.00;96021.31;1034247;28;20037;-73
2023/05/17 00:05:00;;;;;;;9.70;3.92;;;;;;;6.93;100.00;96012.72;1038120;28;20021;-75
2023/05/17 00:05:31;;;;;;;5.70;3.13;;;;;;;6.94;100.00;96019.50;1034319;28;20105;-74
2023/05/17 00:06:01;;;;;;;8.50;3.50;;;;;;;6.94;100.00;96014.28;1030122;28;20018;-76
2023/05/17 00:06:33;;;;;;;12.38;4.07;;;;;;;6.96;100.00;96020.06;1022155;29;20031;-75
2023/05/17 00:07:04;;;;;;;8.18;3.63;;;;;;;6.94;100.00;96024.72;1022429;28;20050;-75
2023/05/17 00:07:34;;;;;;;7.38;3.40;;;;;;;6.95;100.00;96026.31;1030392;28;20273;-73
2023/05/17 00:08:05;;;;;;;6.35;3.50;;;;;;;6.94;100.00;96027.34;1034172;28;20792;-75
2023/05/17 00:08:35;;;;;;;8.63;3.55;;;;;;;6.93;100.00;96026.53;1036441;28;20494;-76
2023/05/17 00:09:06;;;;;;;6.65;3.25;;;;;;;6.93;100.00;96028.38;1038103;28;20022;-74
2023/05/17 00:09:36;;;;;;;7.93;3.22;;;;;;;6.88;100.00;96016.03;1042170;28;20453;-75
2023/05/17 00:10:07;;;;;;;6.00;2.85;;;;;;;6.87;100.00;96013.63;1038088;28;20268;-75
2023/05/17 00:10:38;;;;;;;6.63;3.45;;;;;;;6.94;100.00;96025.53;1030107;28;20605;-75
2023/05/17 00:11:08;;;;;;;5.00;3.00;;;;;;;6.94;100.00;96024.72;1029155;28;20033;-75
2023/05/17 00:11:39;;;;;;;5.95;3.53;;;;;;;6.93;100.00;96021.31;1025983;28;20030;-74
2023/05/17 00:12:09;;;;;;;4.57;2.90;;;;;;;6.91;100.00;96019.97;1029956;28;20093;-75
2023/05/17 00:12:40;;;;;;;4.68;3.42;;;;;;;6.93;100.00;96030.97;1029993;28;20129;-75
2023/05/17 00:13:10;;;;;;;11.43;3.35;;;;;;;6.97;100.00;96029.47;1029676;28;20115;-74
2023/05/17 00:13:41;;;;;;;8.32;3.50;;;;;;;6.94;100.00;96024.72;1028279;28;20066;-75
2023/05/17 00:14:11;;;;;;;6.40;3.22;;;;;;;6.85;100.00;96017.28;1030047;28;20582;-75
2023/05/17 00:14:42;;;;;;;7.53;3.63;;;;;;;6.95;100.00;96034.16;1030062;28;20038;-74
2023/05/17 00:15:13;;;;;;;6.80;3.25;;;;;;;6.94;100.00;96035.97;1026806;28;20038;-74
2023/05/17 00:15:44;;;;;;;8.23;3.58;;;;;;;6.95;100.00;96031.53;1030274;28;20038;-76
2023/05/17 00:16:14;;;;;;;8.65;3.40;;;;;;;6.90;100.00;96023.59;1030003;28;20265;-75
2023/05/17 00:16:44;;;;;;;5.80;3.40;;;;;;;6.97;100.00;96029.47;1030112;28;20419;-75
2023/05/17 00:17:15;;;;;;;6.78;3.05;;;;;;;6.94;100.00;96027.34;1034087;28;20026;-76
2023/05/17 00:17:46;;;;;;;6.95;4.03;;;;;;;6.90;100.00;96034.84;1029723;28;20027;-74
2023/05/17 00:18:16;;;;;;;4.90;3.28;;;;;;;6.80;100.00;96008.56;1029998;28;20372;-74
2023/05/17 00:18:46;;;;;;;4.75;3.65;;;;;;;6.95;100.00;96034.16;1021965;28;20046;-75
2023/05/17 00:19:17;;;;;;;7.53;3.15;;;;;;;6.97;100.00;96032.09;1021749;28;20034;-74
2023/05/17 00:19:47;;;;;;;4.72;2.95;;;;;;;6.96;100.00;96027.91;1026052;28;20031;-75
2023/05/17 00:20:18;;;;;;;7.20;2.85;;;;;;;6.91;100.00;96017.34;1026248;28;20031;-75
2023/05/17 00:20:48;;;;;;;4.65;3.08;;;;;;;6.95;100.00;96031.53;1025937;28;20285;-75
2023/05/17 00:21:19;;;;;;;4.10;2.97;;;;;;;6.93;100.00;96026.53;1025459;28;20034;-75
2023/05/17 00:21:49;;;;;;;4.93;2.97;;;;;;;6.88;100.00;96023.06;1021954;29;20023;-74
2023/05/17 00:22:20;;;;;;;6.38;2.78;;;;;;;6.93;100.00;96023.16;1029819;28;20417;-75
2023/05/17 00:22:50;;;;;;;6.53;2.92;;;;;;;6.94;100.00;96029.94;1029887;28;20054;-75
2023/05/17 00:23:21;;;;;;;8.85;3.13;;;;;;;6.91;100.00;96033.00;1029880;28;20589;-73
2023/05/17 00:23:51;;;;;;;5.72;3.15;;;;;;;6.90;100.00;96026.22;1029932;28;20492;-74
2023/05/17 00:24:22;;;;;;;7.22;3.80;;;;;;;6.93;100.00;96033.59;1028214;28;20035;-75
2023/05/17 00:24:52;;;;;;;4.45;2.90;;;;;;;6.90;100.00;96023.59;1029861;28;20030;-74
2023/05/17 00:25:22;;;;;;;5.00;3.08;;;;;;;6.91;100.00;96033.00;1030257;28;20506;-74
2023/05/17 00:25:53;;;;;;;4.45;2.80;;;;;;;6.87;100.00;96026.69;1029528;28;20057;-75
2023/05/17 00:26:23;;;;;;;6.32;2.97;;;;;;;6.93;100.00;96028.38;1029880;28;20026;-74
2023/05/17 00:26:54;;;;;;;5.15;3.05;;;;;;;6.92;100.00;96034.63;1030126;28;20494;-75
2023/05/17 00:27:24;;;;;;;4.78;2.50;;;;;;;6.83;100.00;96024.53;1029923;28;20578;-74
2023/05/17 00:27:55;;;;;;;5.07;3.05;;;;;;;6.91;100.00;96035.63;1029810;28;20133;-74
2023/05/17 00:28:25;;;;;;;7.90;3.33;;;;;;;6.83;100.00;96027.13;1025993;28;20441;-75
2023/05/17 00:28:56;;;;;;;7.25;2.85;;;;;;;6.90;100.00;96028.81;1022017;29;20035;-75
2023/05/17 00:29:26;;;;;;;10.15;3.13;;;;;;;6.88;100.00;96036.91;1021862;28;20061;-75
2023/05/17 00:29:57;;;;;;;5.05;2.67;;;;;;;6.84;100.00;96030.53;1025840;28;20491;-73
2023/05/17 00:30:27;;;;;;;7.57;2.63;;;;;;;6.90;100.00;96034.84;1029962;28;20018;-74
2023/05/17 00:30:57;;;;;;;4.97;2.80;;;;;;;6.83;100.00;96032.34;1030524;28;20026;-73
2023/05/17 00:31:28;;;;;;;6.63;2.95;;;;;;;6.87;100.00;96035.28;1030328;28;20571;-77
2023/05/17 00:31:58;;;;;;;4.40;2.75;;;;;;;6.90;100.00;96050.47;1026839;28;20031;-74
2023/05/17 00:32:29;;;;;;;4.65;2.35;;;;;;;6.92;100.00;96047.66;1026776;28;20023;-74
2023/05/17 00:32:59;;;;;;;5.10;3.10;;;;;;;6.90;100.00;96045.25;1030059;28;20023;-74
2023/05/17 00:33:30;;;;;;;5.38;2.72;;;;;;;6.90;100.00;96044.47;1030822;28;20038;-74
2023/05/17 00:34:00;;;;;;;5.88;2.80;;;;;;;6.90;100.00;96047.09;1026718;28;20059;-74
2023/05/17 00:34:31;;;;;;;4.78;3.10;;;;;;;6.85;100.00;96048.56;1036574;28;20025;-74
2023/05/17 00:35:01;;;;;;;3.67;2.50;;;;;;;6.87;100.00;96047.53;1034865;28;20037;-74
2023/05/17 00:35:32;;;;;;;7.22;2.72;;;;;;;6.73;100.00;96024.31;1030774;28;20018;-75
2023/05/17 00:36:03;;;;;;;4.18;2.90;;;;;;;6.86;100.00;96051.97;1034570;28;20014;-73
2023/05/17 00:36:33;;;;;;;5.72;2.53;;;;;;;6.81;100.00;96042.25;1026817;28;20121;-73
2023/05/17 00:37:03;;;;;;;4.75;2.60;;;;;;;6.82;100.00;96043.03;1026808;28;20133;-74
2023/05/17 00:37:34;;;;;;;5.63;2.83;;;;;;;6.85;100.00;96048.56;1030873;28;20034;-74
2023/05/17 00:38:04;;;;;;;4.53;2.40;;;;;;;6.84;100.00;96041.78;1030495;28;20463;-75
2023/05/17 00:38:35;;;;;;;4.43;2.78;;;;;;;6.84;100.00;96047.00;1026884;28;20078;-73
2023/05/17 00:39:05;;;;;;;3.35;2.50;;;;;;;6.83;100.00;96039.38;1022728;28;20023;-73
2023/05/17 00:39:36;;;;;;;6.15;2.70;;;;;;;6.71;100.00;96029.00;1028357;28;20251;-73
2023/05/17 00:40:07;;;;;;;8.20;2.90;;;;;;;6.76;100.00;96034.31;1034561;28;20022;-75
2023/05/17 00:40:37;;;;;;;5.50;2.60;;;;;;;6.76;100.00;96036.91;1030629;28;20062;-74
2023/05/17 00:41:08;;;;;;;5.18;3.45;;;;;;;6.81;100.00;96044.84;1020167;29;20275;-73
2023/05/17 00:41:38;;;;;;;5.07;2.30;;;;;;;6.82;100.00;96041.22;1026806;28;20034;-75
2023/05/17 00:42:09;;;;;;;5.82;2.72;;;;;;;6.77;100.00;96042.91;1026893;28;20026;-73
2023/05/17 00:42:39;;;;;;;4.68;2.38;;;;;;;6.81;100.00;96042.25;1026939;28;20022;-73
2023/05/17 00:43:10;;;;;;;7.45;3.05;;;;;;;6.82;100.00;96046.44;1022737;28;20031;-73
2023/05/17 00:43:40;;;;;;;7.03;2.63;;;;;;;6.80;100.00;96051.06;1018942;29;20020;-74
2023/05/17 00:44:11;;;;;;;10.52;2.88;;;;;;;6.81;100.00;96047.47;1019176;28;20024;-75
2023/05/17 00:44:41;;;;;;;4.80;2.70;;;;;;;6.81;100.00;96039.63;1034768;28;20654;-74
2023/05/17 00:45:12;;;;;;;4.05;2.33;;;;;;;6.81;100.00;96052.69;1034989;28;20598;-73
2023/05/17 00:45:43;;;;;;;5.03;2.65;;;;;;;6.80;100.00;96047.66;1035061;28;20033;-74
2023/05/17 00:46:14;;;;;;;6.93;3.25;;;;;;;6.79;100.00;96044.28;1034779;28;20411;-74
2023/05/17 00:46:45;;;;;;;3.88;2.08;;;;;;;6.75;100.00;96043.16;1035077;28;20331;-73
2023/05/17 00:47:16;;;;;;;7.78;2.60;;;;;;;6.77;100.00;96046.34;1034660;28;20268;-73
2023/05/17 00:47:46;;;;;;;6.10;2.55;;;;;;;6.75;100.00;96050.19;1026785;28;20023;-74
2023/05/17 00:48:19;;;;;;;3.47;2.20;;;;;;;6.77;100.00;96051.56;1030062;28;20033;-73
2023/05/17 00:48:50;;;;;;;6.88;2.30;;;;;;;6.77;100.00;96048.13;1030683;28;20041;-74
2023/05/17 00:49:20;;;;;;;3.85;2.63;;;;;;;6.76;100.00;96049.94;1027054;28;20273;-74
2023/05/17 00:49:51;;;;;;;6.18;2.30;;;;;;;6.76;100.00;96049.94;1030723;28;20042;-73
2023/05/17 00:50:21;;;;;;;6.45;3.22;;;;;;;6.71;100.00;96042.03;1019151;29;20387;-75
2023/05/17 00:50:52;;;;;;;6.22;2.45;;;;;;;6.69;100.00;96038.84;1026544;28;20094;-73
2023/05/17 00:51:23;;;;;;;6.80;2.20;;;;;;;6.72;100.00;96048.84;1026867;28;20356;-75
2023/05/17 00:51:53;;;;;;;5.90;2.60;;;;;;;6.72;100.00;96043.63;1030808;28;20061;-74
2023/05/17 00:52:24;;;;;;;6.47;2.90;;;;;;;6.72;100.00;96053.25;1026821;28;20037;-73
2023/05/17 00:52:54;;;;;;;3.55;2.10;;;;;;;6.72;100.00;96048.84;1022612;29;20027;-74
2023/05/17 00:53:25;;;;;;;8.57;2.72;;;;;;;6.74;100.00;96052.00;1023286;28;20114;-75
2023/05/17 00:53:55;;;;;;;5.53;2.67;;;;;;;6.72;100.00;96059.25;1026936;28;20055;-74
2023/05/17 00:54:26;;;;;;;3.33;2.28;;;;;;;6.70;100.00;96052.69;1026915;28;20022;-72
2023/05/17 00:54:56;;;;;;;3.72;2.25;;;;;;;6.73;100.00;96053.00;1030647;28;20419;-74
2023/05/17 00:55:27;;;;;;;8.85;2.60;;;;;;;6.70;100.00;96050.88;1038879;28;20026;-74
2023/05/17 00:55:57;;;;;;;3.13;2.33;;;;;;;6.72;100.00;96054.03;1030577;28;20033;-73
2023/05/17 00:56:28;;;;;;;4.85;2.45;;;;;;;6.70;100.00;96050.88;1030657;28;20026;-73
2023/05/17 00:57:00;;;;;;;3.63;2.47;;;;;;;6.71;100.00;96057.69;1034690;28;20036;-73
2023/05/17 00:57:31;;;;;;;4.47;2.65;;;;;;;6.72;100.00;96056.66;1030780;28;20031;-73
2023/05/17 00:58:01;;;;;;;5.28;2.75;;;;;;;6.72;100.00;96058.47;1022732;29;20271;-74
2023/05/17 00:58:32;;;;;;;7.10;2.45;;;;;;;6.62;100.00;96048.63;1022535;28;20035;-73
2023/05/17 00:59:03;;;;;;;4.70;2.35;;;;;;;6.63;100.00;96050.19;1027118;28;20513;-74
2023/05/17 00:59:34;;;;;;;5.55;2.40;;;;;;;6.68;100.00;96062.56;1027213;28;20254;-74
2023/05/17 01:00:05;;;;;;;3.22;2.40;;;;;;;6.68;100.00;96058.16;1028915;28;20660;-75
2023/05/17 01:00:36;;;;;;;8.20;3.00;;;;;;;6.65;100.00;96053.38;1026678;28;20174;-73
2023/05/17 01:01:06;;;;;;;4.68;2.50;;;;;;;6.55;100.00;96040.13;1038161;28;21094;-75
2023/05/17 01:01:37;;;;;;;6.75;2.45;;;;;;;6.64;100.00;96046.59;1038571;28;20556;-74
2023/05/17 01:02:07;;;;;;;4.43;2.58;;;;;;;6.66;100.00;96059.38;1030646;28;20027;-74
2023/05/17 01:02:38;;;;;;;3.42;2.17;;;;;;;6.66;100.00;96054.97;1022488;29;20118;-74
2023/05/17 01:03:08;;;;;;;4.82;3.03;;;;;;;6.67;100.00;96060.97;1022592;29;20614;-74
2023/05/17 01:03:39;;;;;;;5.55;2.88;;;;;;;6.61;100.00;96054.88;1030520;28;20061;-73
2023/05/17 01:04:09;;;;;;;4.50;2.08;;;;;;;6.58;100.00;96053.50;1018655;29;20034;-74
2023/05/17 01:04:40;;;;;;;5.05;2.30;;;;;;;6.64;100.00;96062.25;1018771;29;20043;-74
2023/05/17 01:05:10;;;;;;;5.22;2.47;;;;;;;6.61;100.00;96055.66;1018626;29;20399;-75
2023/05/17 01:05:41;;;;;;;5.18;2.17;;;;;;;6.64;100.00;96057.03;1018779;29;20015;-74
2023/05/17 01:06:11;;;;;;;5.45;2.20;;;;;;;6.64;100.00;96059.63;1018813;29;20672;-75
2023/05/17 01:06:42;;;;;;;5.10;2.47;;;;;;;6.59;100.00;96049.88;1023286;28;20035;-73
2023/05/17 01:07:12;;;;;;;3.70;2.63;;;;;;;6.62;100.00;96059.06;1030892;28;20022;-74
2023/05/17 01:07:43;;;;;;;5.60;2.42;;;;;;;6.64;100.00;96067.44;1034652;28;20428;-73
2023/05/17 01:08:13;;;;;;;4.65;2.40;;;;;;;6.63;100.00;96059.84;1034779;28;20030;-73
2023/05/17 01:08:44;;;;;;;6.20;2.47;;;;;;;6.61;100.00;96065.31;1034273;28;20456;-72
2023/05/17 01:09:15;;;;;;;4.55;1.95;;;;;;;6.63;100.00;96065.06;1034735;28;20021;-73
2023/05/17 01:09:45;;;;;;;7.90;2.55;;;;;;;6.59;100.00;96051.69;1026494;28;20133;-74
2023/05/17 01:10:16;;;;;;;7.95;2.38;;;;;;;6.61;100.00;96058.28;1022482;28;20275;-74
2023/05/17 01:10:52;;;;;;;4.20;1.92;;;;;;;6.63;100.00;96060.63;1030591;28;20025;-74
2023/05/17 01:11:47;;;;;;;3.95;1.98;;;;;;;6.60;100.00;96061.09;1030459;28;20018;-74
2023/05/17 01:12:24;;;;;;;4.03;1.90;;;;;;;6.55;100.00;96058.38;1030621;28;20262;-73
2023/05/17 01:13:26;;;;;;;6.15;2.30;;;;;;;6.59;100.00;96064.72;1026799;28;20755;-74
2023/05/17 01:14:27;;;;;;;4.75;2.30;;;;;;;6.59;100.00;96075.16;1034604;28;20261;-74
2023/05/17 01:15:02;;;;;;;11.77;2.53;;;;;;;6.52;100.00;96064.06;1030462;28;20552;-73
2023/05/17 01:15:35;;;;;;;5.88;2.28;;;;;;;6.49;100.00;96048.88;1030122;28;20015;-74
2023/05/17 01:16:18;;;;;;;3.38;1.85;;;;;;;6.55;100.00;96066.22;1026842;28;20683;-73
2023/05/17 01:16:55;;;;;;;5.35;1.85;;;;;;;6.57;100.00;96061.53;1022652;28;20779;-73
2023/05/17 01:17:34;;;;;;;4.07;1.90;;;;;;;6.51;100.00;96058.06;1026629;28;20254;-74
2023/05/17 01:18:27;;;;;;;3.25;2.25;;;;;;;6.55;100.00;96068.81;1026745;28;20798;-75
2023/05/17 01:19:18;;;;;;;8.45;2.40;;;;;;;6.50;100.00;96061.66;1030733;28;20027;-74
2023/05/17 01:19:58;;;;;;;4.32;2.20;;;;;;;6.50;100.00;96073.91;1028608;28;20912;-74
2023/05/17 01:20:40;;;;;;;4.28;2.05;;;;;;;6.48;100.00;96068.16;1022506;29;20370;-74
2023/05/17 01:21:41;;;;;;;7.15;2.00;;;;;;;6.51;100.00;96065.88;1030007;28;20261;-74
2023/05/17 01:22:30;;;;;;;6.07;2.30;;;;;;;6.47;100.00;96069.16;1034690;28;20257;-75
2023/05/17 01:23:38;;;;;;;5.43;2.00;;;;;;;6.46;100.00;96070.97;1027753;28;20285;-74
2023/05/17 01:24:32;;;;;;;4.72;2.28;;;;;;;6.48;100.00;96073.34;1026407;28;20271;-75
2023/05/17 01:25:35;;;;;;;5.55;2.22;;;;;;;6.43;100.00;96061.00;1026608;28;20290;-74
2023/05/17 01:26:09;;;;;;;4.35;2.00;;;;;;;6.43;100.00;96071.41;1019913;29;20271;-74
2023/05/17 01:26:42;;;;;;;8.10;3.22;;;;;;;6.43;100.00;96070.63;1027536;28;20357;-76
2023/05/17 01:27:13;;;;;;;5.65;2.15;;;;;;;6.41;100.00;96076.09;1031294;28;20265;-74
2023/05/17 01:27:44;;;;;;;4.75;1.73;;;;;;;6.42;100.00;96074.25;1026331;28;20262;-74
2023/05/17 01:28:15;;;;;;;6.38;1.98;;;;;;;6.35;100.00;96062.13;1014737;29;20437;-75
2023/05/17 01:28:46;;;;;;;4.47;1.80;;;;;;;6.40;100.00;96065.88;1022409;29;20039;-75
2023/05/17 01:29:17;;;;;;;7.72;2.03;;;;;;;6.40;100.00;96068.47;1030537;28;20058;-74
2023/05/17 01:29:48;;;;;;;5.55;1.92;;;;;;;6.34;100.00;96063.16;1022565;29;20279;-74
2023/05/17 01:30:19;;;;;;;4.53;1.83;;;;;;;6.33;100.00;96065.97;1026483;28;20273;-74
2023/05/17 01:30:50;;;;;;;5.35;1.85;;;;;;;6.41;100.00;96070.09;1030720;28;20026;-74
2023/05/17 01:31:21;;;;;;;4.78;2.35;;;;;;;6.38;100.00;96074.72;1021800;29;20357;-74
2023/05/17 01:31:51;;;;;;;5.03;2.20;;;;;;;6.37;100.00;96067.09;1022529;29;20278;-75
2023/05/17 01:32:23;;;;;;;4.50;2.10;;;;;;;6.41;100.00;96076.09;1026648;28;20018;-74
2023/05/17 01:32:55;;;;;;;3.50;2.22;;;;;;;6.36;100.00;96061.09;1026321;28;20033;-74
2023/05/17 01:33:25;;;;;;;7.43;1.80;;;;;;;6.38;100.00;96069.50;1030732;28;20262;-73
2023/05/17 01:33:57;;;;;;;6.15;1.90;;;;;;;6.38;100.00;96074.72;1030646;28;20267;-76
2023/05/17 01:34:28;;;;;;;5.40;1.60;;;;;;;6.36;100.00;96071.53;1026304;28;20031;-74
2023/05/17 01:34:58;;;;;;;3.03;1.70;;;;;;;6.37;100.00;96072.31;1026666;28;20756;-74
2023/05/17 01:35:29;;;;;;;4.00;1.85;;;;;;;6.36;100.00;96068.94;1027070;28;20370;-73
2023/05/17 01:35:59;;;;;;;4.88;1.45;;;;;;;6.33;100.00;96066.78;1030237;28;20041;-73
2023/05/17 01:36:30;;;;;;;3.38;1.50;;;;;;;6.36;100.00;96075.97;1026583;28;20023;-74
2023/05/17 01:37:00;;;;;;;3.78;1.67;;;;;;;6.37;100.00;96075.75;1030550;28;20460;-75
2023/05/17 01:37:30;;;;;;;4.70;2.67;;;;;;;6.37;100.00;96075.75;1034865;28;20467;-74
2023/05/17 01:38:01;;;;;;;3.00;1.38;;;;;;;6.37;100.00;96070.53;1034349;28;20025;-73
2023/05/17 01:38:31;;;;;;;6.05;1.67;;;;;;;6.34;100.00;96068.38;1030482;28;20034;-74
2023/05/17 01:39:02;;;;;;;3.20;1.42;;;;;;;6.37;100.00;96072.31;1026660;28;20023;-74
2023/05/17 01:39:32;;;;;;;4.05;1.38;;;;;;;6.31;100.00;96071.44;1023869;28;20118;-74
2023/05/17 01:40:03;;;;;;;5.32;1.77;;;;;;;6.29;100.00;96065.66;1030593;28;20029;-74
2023/05/17 01:40:35;;;;;;;1.60;1.38;;;;;;;6.35;100.00;96077.78;1026510;28;20065;-73
2023/05/17 01:41:10;;;;;;;3.03;1.50;;;;;;;6.33;100.00;96076.41;1033810;28;20311;-74
2023/05/17 01:41:43;;;;;;;3.92;1.80;;;;;;;6.28;100.00;96069.28;1022269;28;20385;-75
2023/05/17 01:42:20;;;;;;;4.38;1.77;;;;;;;6.30;100.00;96080.25;1018452;28;20271;-74
2023/05/17 01:42:57;;;;;;;1.70;1.27;;;;;;;6.27;100.00;96072.91;1030250;28;20738;-74
2023/05/17 01:43:54;;;;;;;6.00;1.65;;;;;;;6.32;100.00;96078.22;1030425;28;20257;-74
2023/05/17 01:44:49;;;;;;;2.55;1.70;;;;;;;6.32;100.00;96080.03;1018358;29;20443;-73
2023/05/17 01:45:25;;;;;;;3.75;2.03;;;;;;;6.25;100.00;96069.72;1026384;28;20266;-72
2023/05/17 01:46:14;;;;;;;4.07;1.60;;;;;;;6.27;100.00;96078.13;1022637;29;20271;-74
2023/05/17 01:46:46;;;;;;;2.53;1.50;;;;;;;6.30;100.00;96074.25;1025119;28;20663;-74
2023/05/17 01:47:23;;;;;;;5.82;1.60;;;;;;;6.28;100.00;96079.69;1022203;29;20275;-73
2023/05/17 01:48:12;;;;;;;6.32;1.60;;;;;;;6.25;100.00;96072.34;1025825;28;20309;-73
2023/05/17 01:48:45;;;;;;;6.50;1.88;;;;;;;6.28;100.00;96074.50;1030625;28;20407;-73
2023/05/17 01:49:20;;;;;;;3.65;1.67;;;;;;;6.24;100.00;96077.78;1022390;29;20703;-75
2023/05/17 01:49:52;;;;;;;4.63;2.08;;;;;;;6.26;100.00;96067.91;1020672;28;20295;-74
2023/05/17 01:50:24;;;;;;;3.95;1.48;;;;;;;6.24;100.00;96075.97;1034373;28;20256;-74
2023/05/17 01:50:54;;;;;;;4.80;1.50;;;;;;;6.24;100.00;96073.38;1034268;28;20529;-74
2023/05/17 01:51:26;;;;;;;6.22;1.42;;;;;;;6.25;100.00;96072.34;1022699;28;20263;-74
2023/05/17 01:52:18;;;;;;;3.92;1.48;;;;;;;6.21;100.00;96068.59;1034261;28;20065;-74
2023/05/17 01:52:58;;;;;;;5.07;1.77;;;;;;;6.22;100.00;96077.22;1034679;28;20442;-74
2023/05/17 01:53:48;;;;;;;2.08;1.33;;;;;;;6.23;100.00;96081.41;1034349;28;20415;-73
2023/05/17 01:54:20;;;;;;;5.00;1.80;;;;;;;6.23;100.00;96078.78;1026678;28;20289;-74
2023/05/17 01:55:14;;;;;;;2.08;1.40;;;;;;;6.18;100.00;96076.09;1027531;28;20867;-73
2023/05/17 01:55:52;;;;;;;8.07;1.65;;;;;;;6.18;100.00;96083.91;1030497;28;20357;-73
2023/05/17 01:56:26;;;;;;;6.43;1.40;;;;;;;6.20;100.00;96082.63;1030334;28;20265;-73
2023/05/17 01:56:57;;;;;;;4.35;1.67;;;;;;;6.19;100.00;96086.25;1030691;28;20698;-74
2023/05/17 01:57:29;;;;;;;3.05;1.30;;;;;;;6.17;100.00;96082.28;1026238;28;20277;-73
2023/05/17 01:58:00;;;;;;;5.25;1.38;;;;;;;6.14;100.00;96078.34;1022660;29;20266;-74
2023/05/17 01:58:31;;;;;;;4.97;1.48;;;;;;;6.05;100.00;96058.84;1026675;28;20726;-74
2023/05/17 01:59:04;;;;;;;3.38;1.38;;;;;;;6.12;100.00;96075.94;1030437;28;20085;-73
2023/05/17 01:59:35;;;;;;;3.20;1.77;;;;;;;6.17;100.00;96077.09;1022532;29;20082;-75
2023/05/17 02:00:10;;;;;;;2.60;1.17;;;;;;;6.13;100.00;96081.94;1026301;28;20928;-74
2023/05/17 02:00:42;;;;;;;2.90;1.33;;;;;;;6.15;100.00;96079.94;1019643;29;20052;-74
2023/05/17 02:01:16;;;;;;;4.22;1.50;;;;;;;6.07;100.00;96067.22;1023789;28;20688;-74
2023/05/17 02:01:47;;;;;;;1.85;1.27;;;;;;;6.12;100.00;96080.38;1030064;28;20273;-72
2023/05/17 02:02:21;;;;;;;4.40;1.50;;;;;;;6.10;100.00;96075.41;1022504;28;20242;-73
2023/05/17 02:02:51;;;;;;;6.47;1.70;;;;;;;6.09;100.00;96073.00;1034366;28;20607;-74
2023/05/17 02:03:22;;;;;;;3.47;1.48;;;;;;;6.08;100.00;96079.25;1034451;28;20269;-74
2023/05/17 02:03:52;;;;;;;1.70;1.25;;;;;;;6.09;100.00;96073.00;1037717;28;20028;-74
2023/05/17 02:04:22;;;;;;;4.40;1.30;;;;;;;6.12;100.00;96075.16;1034050;28;20014;-73
2023/05/17 02:04:53;;;;;;;4.72;1.20;;;;;;;6.03;100.00;96064.28;1030736;28;20491;-74
2023/05/17 02:05:24;;;;;;;4.20;1.83;;;;;;;6.09;100.00;96070.41;1030480;28;20022;-73
2023/05/17 02:05:54;;;;;;;1.67;1.08;;;;;;;6.06;100.00;96070.84;1030424;28;20037;-74
2023/05/17 02:06:25;;;;;;;4.80;1.50;;;;;;;6.07;100.00;96077.63;1034803;28;20013;-74
2023/05/17 02:06:55;;;;;;;3.85;1.35;;;;;;;6.06;100.00;96071.63;1031699;28;20022;-75
2023/05/17 02:07:26;;;;;;;2.67;1.20;;;;;;;6.06;100.00;96076.06;1026429;28;20504;-73
2023/05/17 02:07:56;;;;;;;3.58;1.23;;;;;;;6.07;100.00;96077.63;1022368;28;20659;-75
2023/05/17 02:08:27;;;;;;;2.65;1.10;;;;;;;6.06;100.00;96081.28;1027638;28;20547;-73
2023/05/17 02:08:59;;;;;;;3.17;1.33;;;;;;;6.05;100.00;96070.06;1026816;28;20026;-75
2023/05/17 02:09:30;;;;;;;2.38;1.60;;;;;;;6.01;100.00;96068.94;1026369;28;20415;-72
2023/05/17 02:10:01;;;;;;;4.20;1.45;;;;;;;6.05;100.00;96075.28;1021759;28;20273;-73
2023/05/17 02:10:31;;;;;;;4.25;1.38;;;;;;;5.93;100.00;96060.66;1019126;29;20027;-74
2023/05/17 02:11:01;;;;;;;4.32;1.13;;;;;;;6.00;100.00;96066.53;1021925;28;20022;-74
2023/05/17 02:11:32;;;;;;;9.32;2.13;;;;;;;6.04;100.00;96075.50;1026487;28;20484;-73
2023/05/17 02:12:02;;;;;;;2.60;1.05;;;;;;;6.02;100.00;96075.72;1034350;28;20742;-74
2023/05/17 02:12:33;;;;;;;5.13;1.10;;;;;;;6.03;100.00;96076.50;1034616;28;20030;-74
2023/05/17 02:13:03;;;;;;;6.85;1.63;;;;;;;6.02;100.00;96074.94;1030652;28;20034;-75
2023/05/17 02:13:34;;;;;;;24.52;2.67;;;;;;;5.99;100.00;96075.38;1034347;28;20569;-74
2023/05/17 02:14:04;;;;;;;5.13;1.73;;;;;;;6.01;100.00;96075.97;1030324;28;20026;-74
2023/05/17 02:14:35;;;;;;;3.78;1.23;;;;;;;6.02;100.00;96074.94;1026856;28;20647;-74
2023/05/17 02:15:07;;;;;;;5.60;1.50;;;;;;;6.02;100.00;96072.31;1030588;28;20053;-74
2023/05/17 02:15:37;;;;;;;9.13;1.70;;;;;;;5.99;100.00;96068.34;1030408;28;20023;-75
2023/05/17 02:16:07;;;;;;;7.35;1.58;;;;;;;5.99;100.00;96081.38;1030410;28;20758;-75
2023/05/17 02:16:38;;;;;;;5.28;1.77;;;;;;;5.97;100.00;96077.41;1030623;28;20427;-74
2023/05/17 02:17:08;;;;;;;1.80;1.38;;;;;;;5.92;100.00;96067.63;1030549;28;20026;-74
2023/05/17 02:17:39;;;;;;;3.40;1.45;;;;;;;5.98;100.00;96069.38;1026310;28;20034;-74
2023/05/17 02:18:10;;;;;;;4.90;1.77;;;;;;;5.95;100.00;96075.03;1018460;29;20155;-74
2023/05/17 02:18:40;;;;;;;2.10;1.40;;;;;;;5.97;100.00;96077.41;1026618;28;20413;-74
2023/05/17 02:19:12;;;;;;;4.13;1.27;;;;;;;5.95;100.00;96074.25;1030095;28;20260;-74
2023/05/17 02:19:42;;;;;;;4.80;1.50;;;;;;;5.97;100.00;96074.78;1026435;28;20015;-74
2023/05/17 02:20:12;;;;;;;4.13;1.30;;;;;;;5.98;100.00;96073.78;1026352;28;20258;-73
2023/05/17 02:20:43;;;;;;;2.33;1.17;;;;;;;5.98;100.00;96079.00;1022449;28;20506;-74
2023/05/17 02:21:13;;;;;;;5.03;1.23;;;;;;;5.96;100.00;96075.81;1025874;28;20059;-75
2023/05/17 02:21:44;;;;;;;1.70;1.30;;;;;;;5.94;100.00;96077.88;1026690;28;20073;-73
2023/05/17 02:22:14;;;;;;;4.63;1.10;;;;;;;5.85;100.00;96065.13;1031087;28;20443;-74
2023/05/17 02:22:45;;;;;;;4.88;1.30;;;;;;;5.95;100.00;96080.25;1034001;28;20025;-74
2023/05/17 02:23:15;;;;;;;3.53;1.40;;;;;;;5.95;100.00;96076.84;1029420;28;20030;-74
2023/05/17 02:23:46;;;;;;;2.90;1.60;;;;;;;5.95;100.00;96074.25;1031258;28;20023;-74
2023/05/17 02:24:16;;;;;;;3.95;1.13;;;;;;;5.94;100.00;96078.66;1023176;29;20477;-74
2023/05/17 02:24:47;;;;;;;4.85;1.27;;;;;;;5.90;100.00;96075.69;1022994;28;20038;-74
2023/05/17 02:25:18;;;;;;;2.72;1.50;;;;;;;5.88;100.00;96069.09;1030643;28;20038;-74
2023/05/17 02:25:49;;;;;;;3.80;1.13;;;;;;;5.91;100.00;96077.25;1027028;28;20373;-73
2023/05/17 02:26:20;;;;;;;3.53;1.40;;;;;;;5.87;100.00;96070.94;1026492;28;20085;-74
2023/05/17 02:26:50;;;;;;;7.18;1.17;;;;;;;5.90;100.00;96077.47;1022616;29;20270;-74
2023/05/17 02:27:21;;;;;;;1.60;1.08;;;;;;;5.88;100.00;96075.09;1030679;28;20057;-73
2023/05/17 02:27:51;;;;;;;2.65;1.10;;;;;;;5.85;100.00;96065.13;1027460;28;20086;-74
2023/05/17 02:28:22;;;;;;;4.40;1.50;;;;;;;5.84;100.00;96068.75;1026552;28;20520;-74
2023/05/17 02:28:52;;;;;;;2.20;1.27;;;;;;;5.89;100.00;96079.28;1014656;29;20083;-73
2023/05/17 02:29:23;;;;;;;4.38;1.42;;;;;;;5.89;100.00;96071.47;1014644;29;20020;-74
2023/05/17 02:29:53;;;;;;;2.40;1.30;;;;;;;5.86;100.00;96064.09;1018639;29;20035;-73
2023/05/17 02:30:24;;;;;;;4.40;1.63;;;;;;;5.90;100.00;96073.09;1022503;28;20045;-74
2023/05/17 02:30:55;;;;;;;3.72;1.08;;;;;;;5.89;100.00;96074.06;1030573;28;20538;-74
2023/05/17 02:31:25;;;;;;;7.13;2.10;;;;;;;5.89;100.00;96070.69;1029817;28;20026;-74
2023/05/17 02:31:56;;;;;;;3.40;1.75;;;;;;;5.90;100.00;96080.06;1030655;28;20273;-73
2023/05/17 02:32:27;;;;;;;4.07;1.35;;;;;;;5.87;100.00;96073.53;1030761;28;20515;-74
2023/05/17 02:32:58;;;;;;;5.05;1.17;;;;;;;5.87;100.00;96068.31;1033612;28;20635;-73
2023/05/17 02:33:28;;;;;;;5.25;1.50;;;;;;;5.84;100.00;96068.75;1034748;28;20269;-74
2023/05/17 02:33:59;;;;;;;5.47;1.50;;;;;;;5.86;100.00;96069.31;1034683;28;20490;-73